This is the latest recevied weather packets stored in our database for station/object E25WMA-7. If no packets are shown the sender has not sent any weather packets the latest 10 day(s).
| Time | Temp. | Humidity | Pressure | Rain* | Wind** | Luminosity | Snow |
|---|---|---|---|---|---|---|---|
| 1788586243 | 33.33° C | 59% | 1002 hPa | - | - | 0 W/m² | - |
| 1788585321 | 33.33° C | 59% | 1003 hPa | - | - | 0 W/m² | - |
| 1788584399 | 32.78° C | 59% | 1003 hPa | - | - | 0 W/m² | - |
| 1788583477 | 32.78° C | 60% | 1003 hPa | - | - | 0 W/m² | - |
| 1788582555 | 32.22° C | 62% | 1004 hPa | - | - | 0 W/m² | - |
| 1788581635 | 32.22° C | 62% | 1004 hPa | - | - | 0 W/m² | - |
| 1788580711 | 32.22° C | 63% | 1004 hPa | - | - | 0 W/m² | - |
| 1788579789 | 31.67° C | 64% | 1004 hPa | - | - | 0 W/m² | - |
| 1788578867 | 31.67° C | 64% | 1004 hPa | - | - | 0 W/m² | - |
| 1788577944 | 31.11° C | 66% | 1004 hPa | - | - | 0 W/m² | - |
| 1788577022 | 31.11° C | 68% | 1004 hPa | - | - | 0 W/m² | - |
| 1788576100 | 31.11° C | 68% | 1004 hPa | - | - | 0 W/m² | - |
| 1788575178 | 31.11° C | 68% | 1005 hPa | - | - | 0 W/m² | - |
| 1788574256 | 30.56° C | 68% | 1004 hPa | - | - | 0 W/m² | - |
| 1788573334 | 30.56° C | 69% | 1004 hPa | - | - | 0 W/m² | - |
| 1788572412 | 30.56° C | 71% | 1004 hPa | - | - | 0 W/m² | - |
| 1788571490 | 30.56° C | 70% | 1004 hPa | - | - | 0 W/m² | - |
| 1788570572 | 30.56° C | 72% | 1004 hPa | - | - | 0 W/m² | - |
| 1788569646 | 30.56° C | 70% | 1004 hPa | - | - | 0 W/m² | - |
| 1788568724 | 30.56° C | 71% | 1003 hPa | - | - | 0 W/m² | - |
| 1788567804 | 30.56° C | 72% | 1003 hPa | - | - | 0 W/m² | - |
| 1788566880 | 30.56° C | 71% | 1003 hPa | - | - | 0 W/m² | - |
| 1788565957 | 30° C | 72% | 1003 hPa | - | - | 0 W/m² | - |
| 1788565035 | 31.11° C | 69% | 1003 hPa | - | - | 0 W/m² | - |
| 1788564113 | 31.11° C | 69% | 1002 hPa | - | - | 0 W/m² | - |
* Rain since midnight (hover to see other rain measurements)
** Current wind speed in m/s (hover to see current wind gust speed)